Time,TemperatureF,DewpointF,PressureIn,WindDirection,WindDirectionDegrees,WindSpeedMPH,WindSpeedGustMPH,Humidity,HourlyPrecipIn,Conditions,Clouds,dailyrainin,SoftwareType,DateUTC
2013-04-10 00:05:00,45.9,28.3,29.93,SW,215,5.0,6.0,50,0.00,RA,,0.00,WeatherDisplay:10.37,2013-04-10 07:05:00,
2013-04-10 00:10:00,45.9,27.8,29.93,SW,215,6.0,7.0,49,0.00,CLR,,0.00,WeatherDisplay:10.37,2013-04-10 07:10:00,
2013-04-10 00:20:00,45.7,27.6,29.93,SW,219,0.0,6.0,49,0.00,CLR,,0.00,WeatherDisplay:10.37,2013-04-10 07:20:00,
2013-04-10 00:30:00,45.7,27.1,29.93,SSW,205,0.0,2.0,48,0.00,CLR,,0.00,WeatherDisplay:10.37,2013-04-10 07:30:00,
2013-04-10 00:40:00,45.7,26.1,29.93,SSW,205,0.0,0.0,46,0.00,CLR,,0.00,WeatherDisplay:10.37,2013-04-10 07:40:00,
2013-04-10 00:50:00,45.7,24.4,29.93,WSW,239,2.0,4.0,43,0.00,CLR,,0.00,WeatherDisplay:10.37,2013-04-10 07:50:00,
2013-04-10 00:55:00,45.7,23.9,29.93,WSW,256,0.0,0.0,42,0.00,CLR,,0.00,WeatherDisplay:10.37,2013-04-10 07:55:00,
2013-04-10 01:05:00,46.0,24.2,29.93,WSW,247,0.0,0.0,42,0.00,CLR,,0.00,WeatherDisplay:10.37,2013-04-10 08:05:00,
2013-04-10 01:10:00,46.0,23.6,29.93,WSW,252,0.0,0.0,41,0.00,CLR,,0.00,WeatherDisplay:10.37,2013-04-10 08:10:00,
2013-04-10 01:20:00,46.2,23.8,29.93,WSW,237,0.0,0.0,41,0.00,CLR,,0.00,WeatherDisplay:10.37,2013-04-10 08:20:00,
2013-04-10 01:30:00,46.2,23.2,29.92,West,264,0.0,0.0,40,0.00,CLR,,0.00,WeatherDisplay:10.37,2013-04-10 08:30:00,
2013-04-10 01:40:00,46.2,23.2,29.93,WSW,256,0.0,0.0,40,0.00,CLR,,0.00,WeatherDisplay:10.37,2013-04-10 08:40:00,
2013-04-10 01:50:00,46.1,23.1,29.93,West,278,0.0,0.0,40,0.00,CLR,,0.00,WeatherDisplay:10.37,2013-04-10 08:50:00,
2013-04-10 02:00:00,46.0,23.0,29.92,WNW,292,0.0,0.0,40,0.00,CLR,,0.00,WeatherDisplay:10.37,2013-04-10 09:00:00,
2013-04-10 02:05:00,46.0,23.0,29.92,WNW,284,0.0,0.0,40,0.00,CLR,,0.00,WeatherDisplay:10.37,2013-04-10 09:05:00,
2013-04-10 02:10:00,46.0,23.0,29.92,WNW,286,0.0,0.0,40,0.00,CLR,,0.00,WeatherDisplay:10.37,2013-04-10 09:10:00,
2013-04-10 02:20:00,46.0,23.0,29.93,WNW,284,0.0,0.0,40,0.00,CLR,,0.00,WeatherDisplay:10.37,2013-04-10 09:20:00,
2013-04-10 02:30:00,45.7,22.7,29.92,West,270,0.0,0.0,40,0.00,CLR,,0.00,WeatherDisplay:10.37,2013-04-10 09:30:00,
2013-04-10 02:40:00,45.5,22.5,29.92,West,270,0.0,0.0,40,0.00,CLR,,0.00,WeatherDisplay:10.37,2013-04-10 09:40:00,
2013-04-10 02:50:00,45.3,22.4,29.93,West,270,0.0,0.0,40,0.00,CLR,,0.00,WeatherDisplay:10.37,2013-04-10 09:50:00,
2013-04-10 02:55:00,45.1,22.2,29.93,West,270,0.0,0.0,40,0.00,CLR,,0.00,WeatherDisplay:10.37,2013-04-10 09:55:00,
2013-04-10 03:05:00,44.8,22.5,29.93,West,271,0.0,0.0,41,0.00,CLR,,0.00,WeatherDisplay:10.37,2013-04-10 10:05:00,
2013-04-10 03:10:00,44.3,22.6,29.93,North,3,0.0,0.0,42,0.00,CLR,,0.00,WeatherDisplay:10.37,2013-04-10 10:10:00,
2013-04-10 03:20:00,43.6,23.1,29.93,ENE,68,0.0,0.0,44,0.00,CLR,,0.00,WeatherDisplay:10.37,2013-04-10 10:20:00,
2013-04-10 03:30:00,43.0,23.1,29.93,ENE,68,0.0,0.0,45,0.00,CLR,,0.00,WeatherDisplay:10.37,2013-04-10 10:30:00,
2013-04-10 03:40:00,42.4,23.6,29.94,ENE,68,0.0,0.0,47,0.00,CLR,,0.00,WeatherDisplay:10.37,2013-04-10 10:40:00,
2013-04-10 03:50:00,41.7,23.5,29.93,ENE,68,0.0,0.0,48,0.00,CLR,,0.00,WeatherDisplay:10.37,2013-04-10 10:50:00,
2013-04-10 04:00:00,41.5,23.3,29.93,ENE,68,0.0,0.0,48,0.00,CLR,,0.00,WeatherDisplay:10.37,2013-04-10 11:00:00,
2013-04-10 04:05:00,41.2,22.5,29.94,ENE,68,0.0,0.0,47,0.00,CLR,,0.00,WeatherDisplay:10.37,2013-04-10 11:05:00,
2013-04-10 04:10:00,41.2,22.5,29.94,ENE,68,0.0,0.0,47,0.00,CLR,,0.00,WeatherDisplay:10.37,2013-04-10 11:10:00,
2013-04-10 04:20:00,40.8,22.6,29.94,ENE,68,0.0,0.0,48,0.00,CLR,,0.00,WeatherDisplay:10.37,2013-04-10 11:20:00,
2013-04-10 04:30:00,40.5,22.3,29.94,ENE,68,0.0,0.0,48,0.00,CLR,,0.00,WeatherDisplay:10.37,2013-04-10 11:30:00,
2013-04-10 04:40:00,40.1,22.4,29.94,ENE,68,0.0,0.0,49,0.00,CLR,,0.00,WeatherDisplay:10.37,2013-04-10 11:40:00,
2013-04-10 04:50:00,39.9,22.3,29.94,ENE,68,0.0,0.0,49,0.00,CLR,,0.00,WeatherDisplay:10.37,2013-04-10 11:50:00,
2013-04-10 05:00:00,39.7,21.6,29.94,ENE,68,0.0,0.0,48,0.00,CLR,,0.00,WeatherDisplay:10.37,2013-04-10 12:00:00,
2013-04-10 05:05:00,39.7,21.6,29.94,SE,140,0.0,0.0,48,0.00,CLR,,0.00,WeatherDisplay:10.37,2013-04-10 12:05:00,
2013-04-10 05:10:00,39.6,21.5,29.94,South,180,0.0,0.0,48,0.00,CLR,,0.00,WeatherDisplay:10.37,2013-04-10 12:10:00,
2013-04-10 05:20:00,39.4,21.3,29.94,South,180,0.0,0.0,48,0.00,CLR,,0.00,WeatherDisplay:10.37,2013-04-10 12:20:00,
2013-04-10 05:30:00,39.4,21.3,29.94,South,180,0.0,0.0,48,0.00,CLR,,0.00,WeatherDisplay:10.37,2013-04-10 12:30:00,
2013-04-10 05:40:00,39.6,21.5,29.94,SSW,200,0.0,0.0,48,0.00,CLR,,0.00,WeatherDisplay:10.37,2013-04-10 12:40:00,
2013-04-10 05:50:00,39.9,21.8,29.94,SSW,202,0.0,0.0,48,0.00,CLR,,0.00,WeatherDisplay:10.37,2013-04-10 12:50:00,
2013-04-10 06:00:00,39.9,22.3,29.94,SSW,202,0.0,0.0,49,0.00,CLR,,0.00,WeatherDisplay:10.37,2013-04-10 13:00:00,
2013-04-10 06:05:00,39.9,22.3,29.94,SSW,202,0.0,0.0,49,0.00,CLR,,0.00,WeatherDisplay:10.37,2013-04-10 13:05:00,
2013-04-10 06:10:00,40.1,22.4,29.94,SSW,202,0.0,0.0,49,0.00,CLR,,0.00,WeatherDisplay:10.37,2013-04-10 13:10:00,
2013-04-10 06:20:00,40.6,22.5,29.95,SSW,202,0.0,0.0,48,0.00,CLR,,0.00,WeatherDisplay:10.37,2013-04-10 13:20:00,
2013-04-10 06:30:00,41.0,22.8,29.95,SSW,202,0.0,0.0,48,0.00,CLR,,0.00,WeatherDisplay:10.37,2013-04-10 13:30:00,
2013-04-10 06:40:00,41.4,23.1,29.96,ESE,114,0.0,0.0,48,0.00,CLR,,0.00,WeatherDisplay:10.37,2013-04-10 13:40:00,
2013-04-10 06:50:00,41.5,23.3,29.96,ENE,68,0.0,0.0,48,0.00,CLR,,0.00,WeatherDisplay:10.37,2013-04-10 13:50:00,
2013-04-10 07:00:00,42.1,23.8,29.97,ENE,68,0.0,0.0,48,0.00,CLR,,0.00,WeatherDisplay:10.37,2013-04-10 14:00:00,
2013-04-10 07:05:00,42.3,24.0,29.97,ENE,68,0.0,0.0,48,0.00,CLR,,0.00,WeatherDisplay:10.37,2013-04-10 14:05:00,
2013-04-10 07:10:00,42.6,24.2,29.97,ENE,68,0.0,0.0,48,0.00,CLR,,0.00,WeatherDisplay:10.37,2013-04-10 14:10:00,
2013-04-10 07:20:00,43.0,24.1,29.97,ENE,68,0.0,0.0,47,0.00,CLR,,0.00,WeatherDisplay:10.37,2013-04-10 14:20:00,
2013-04-10 07:30:00,43.9,24.4,29.98,ENE,67,0.0,0.0,46,0.00,CLR,,0.00,WeatherDisplay:10.37,2013-04-10 14:30:00,
2013-04-10 07:40:00,45.0,25.4,29.97,NE,45,0.0,0.0,46,0.00,CLR,,0.00,WeatherDisplay:10.37,2013-04-10 14:40:00,
2013-04-10 07:50:00,45.8,25.7,29.98,ENE,57,0.0,6.0,45,0.00,CLR,,0.00,WeatherDisplay:10.37,2013-04-10 14:50:00,
2013-04-10 08:00:00,46.6,26.4,29.98,NNE,32,3.0,6.0,45,0.00,CLR,,0.00,WeatherDisplay:10.37,2013-04-10 15:00:00,
2013-04-10 08:05:00,46.7,26.5,29.98,NE,39,0.0,4.0,45,0.00,CLR,,0.00,WeatherDisplay:10.37,2013-04-10 15:05:00,
2013-04-10 08:10:00,47.0,26.7,29.98,NE,54,0.0,0.0,45,0.00,CLR,,0.00,WeatherDisplay:10.37,2013-04-10 15:10:00,
2013-04-10 08:20:00,47.8,26.9,29.98,NE,51,0.0,5.0,44,0.00,CLR,,0.00,WeatherDisplay:10.37,2013-04-10 15:20:00,
2013-04-10 08:30:00,48.4,26.9,29.98,ENE,59,0.0,1.0,43,0.00,CLR,,0.00,WeatherDisplay:10.37,2013-04-10 15:30:00,
2013-04-10 08:40:00,49.3,26.5,29.98,NNE,25,0.0,0.0,41,0.00,CLR,,0.00,WeatherDisplay:10.37,2013-04-10 15:40:00,
2013-04-10 08:50:00,50.2,27.4,29.98,NE,45,0.0,0.0,41,0.00,CLR,,0.00,WeatherDisplay:10.37,2013-04-10 15:50:00,
2013-04-10 09:00:00,50.9,27.4,29.97,ENE,60,0.0,5.0,40,0.00,CLR,,0.00,WeatherDisplay:10.37,2013-04-10 16:00:00,
2013-04-10 09:10:00,51.8,27.6,29.98,ENE,69,0.0,0.0,39,0.00,CLR,,0.00,WeatherDisplay:10.37,2013-04-10 16:10:00,
2013-04-10 09:15:00,52.3,27.5,29.98,NE,53,0.0,0.0,38,0.00,CLR,,0.00,WeatherDisplay:10.37,2013-04-10 16:15:00,
2013-04-10 09:20:00,52.8,27.9,29.97,NE,54,0.0,0.0,38,0.00,CLR,,0.00,WeatherDisplay:10.37,2013-04-10 16:20:00,
2013-04-10 09:30:00,53.8,27.4,29.98,East,83,0.0,0.0,36,0.00,CLR,,0.00,WeatherDisplay:10.37,2013-04-10 16:30:00,
2013-04-10 09:35:00,54.3,27.8,29.98,ENE,63,1.0,4.0,36,0.00,CLR,,0.00,WeatherDisplay:10.37,2013-04-10 16:35:00,
2013-04-10 09:45:00,55.2,28.0,29.98,NNE,22,0.0,0.0,35,0.00,CLR,,0.00,WeatherDisplay:10.37,2013-04-10 16:45:00,
2013-04-10 09:50:00,55.9,27.2,29.98,NNE,22,0.0,0.0,33,0.00,CLR,,0.00,WeatherDisplay:10.37,2013-04-10 16:50:00,
2013-04-10 10:00:00,56.5,27.7,29.98,NNE,20,0.0,0.0,33,0.00,CLR,,0.00,WeatherDisplay:10.37,2013-04-10 17:00:00,
2013-04-10 10:05:00,57.4,27.7,29.98,NNW,346,0.0,6.0,32,0.00,CLR,,0.00,WeatherDisplay:10.37,2013-04-10 17:05:00,
2013-04-10 10:10:00,57.6,27.9,29.98,SSW,208,0.0,6.0,32,0.00,CLR,,0.00,WeatherDisplay:10.37,2013-04-10 17:10:00,
2013-04-10 10:20:00,58.6,28.0,29.98,West,264,3.0,12.0,31,0.00,CLR,,0.00,WeatherDisplay:10.37,2013-04-10 17:20:00,
2013-04-10 10:30:00,58.8,26.6,29.98,WSW,249,2.0,10.0,29,0.00,CLR,,0.00,WeatherDisplay:10.37,2013-04-10 17:30:00,
2013-04-10 10:40:00,60.6,28.2,29.97,North,2,0.0,0.0,29,0.00,CLR,,0.00,WeatherDisplay:10.37,2013-04-10 17:40:00,
2013-04-10 10:50:00,61.3,27.9,29.98,WSW,246,8.0,9.0,28,0.00,CLR,,0.00,WeatherDisplay:10.37,2013-04-10 17:50:00,
2013-04-10 11:00:00,61.5,28.1,29.97,WSW,238,7.0,8.0,28,0.00,CLR,,0.00,WeatherDisplay:10.37,2013-04-10 18:00:00,
2013-04-10 11:05:00,61.9,28.4,29.97,WSW,239,0.0,6.0,28,0.00,CLR,,0.00,WeatherDisplay:10.37,2013-04-10 18:05:00,
2013-04-10 11:10:00,62.4,28.0,29.97,WNW,285,3.0,4.0,27,0.00,CLR,,0.00,WeatherDisplay:10.37,2013-04-10 18:10:00,
2013-04-10 11:20:00,64.0,28.4,29.97,WSW,250,13.0,15.0,26,0.00,CLR,,0.00,WeatherDisplay:10.37,2013-04-10 18:20:00,
2013-04-10 11:30:00,64.6,27.9,29.97,WNW,286,9.0,10.0,25,0.00,CLR,,0.00,WeatherDisplay:10.37,2013-04-10 18:30:00,
2013-04-10 11:40:00,65.1,27.4,29.97,WNW,303,5.0,8.0,24,0.00,CLR,,0.00,WeatherDisplay:10.37,2013-04-10 18:40:00,
2013-04-10 11:50:00,65.7,27.8,29.97,WNW,290,0.0,12.0,24,0.00,CLR,,0.00,WeatherDisplay:10.37,2013-04-10 18:50:00,
2013-04-10 12:00:00,66.0,28.2,29.97,WNW,293,0.0,11.0,24,0.00,CLR,,0.00,WeatherDisplay:10.37,2013-04-10 19:00:00,
2013-04-10 12:10:00,66.9,28.9,29.97,West,270,9.0,13.0,24,0.00,CLR,,0.00,WeatherDisplay:10.37,2013-04-10 19:10:00,
2013-04-10 12:20:00,66.7,27.7,29.97,WNW,282,2.0,3.0,23,0.00,CLR,,0.00,WeatherDisplay:10.37,2013-04-10 19:20:00,
2013-04-10 12:30:00,67.3,29.3,29.96,West,273,8.0,8.0,24,0.00,CLR,,0.00,WeatherDisplay:10.37,2013-04-10 19:30:00,
2013-04-10 12:35:00,67.6,28.5,29.96,WNW,299,2.0,6.0,23,0.00,CLR,,0.00,WeatherDisplay:10.37,2013-04-10 19:35:00,
2013-04-10 12:45:00,67.9,28.7,29.95,NW,306,10.0,10.0,23,0.00,CLR,,0.00,WeatherDisplay:10.37,2013-04-10 19:45:00,
2013-04-10 12:50:00,68.2,28.9,29.96,NW,319,6.0,7.0,23,0.00,CLR,,0.00,WeatherDisplay:10.37,2013-04-10 19:50:00,
2013-04-10 13:00:00,67.3,28.2,29.95,WSW,254,0.0,7.0,23,0.00,CLR,,0.00,WeatherDisplay:10.37,2013-04-10 20:00:00,
2013-04-10 13:05:00,67.3,29.2,29.95,WSW,252,0.0,6.0,24,0.00,CLR,,0.00,WeatherDisplay:10.37,2013-04-10 20:05:00,
2013-04-10 13:10:00,67.3,29.2,29.95,WSW,256,6.0,13.0,24,0.00,CLR,,0.00,WeatherDisplay:10.37,2013-04-10 20:10:00,
2013-04-10 13:20:00,67.8,29.6,29.95,WSW,246,1.0,16.0,24,0.00,CLR,,0.00,WeatherDisplay:10.37,2013-04-10 20:20:00,
2013-04-10 13:30:00,68.5,29.2,29.95,WNW,290,1.0,8.0,23,0.00,CLR,,0.00,WeatherDisplay:10.37,2013-04-10 20:30:00,
2013-04-10 13:40:00,68.5,29.2,29.95,West,259,9.0,15.0,23,0.00,CLR,,0.00,WeatherDisplay:10.37,2013-04-10 20:40:00,
2013-04-10 13:50:00,68.9,29.6,29.94,WSW,258,6.0,17.0,23,0.00,CLR,,0.00,WeatherDisplay:10.37,2013-04-10 20:50:00,
2013-04-10 14:00:00,69.6,30.1,29.94,WSW,248,2.0,7.0,23,0.00,CLR,,0.00,WeatherDisplay:10.37,2013-04-10 21:00:00,
2013-04-10 14:05:00,70.0,30.5,29.94,WSW,248,6.0,7.0,23,0.00,CLR,,0.00,WeatherDisplay:10.37,2013-04-10 21:05:00,
2013-04-10 14:10:00,70.3,30.8,29.94,WSW,248,0.0,3.0,23,0.00,CLR,,0.00,WeatherDisplay:10.37,2013-04-10 21:10:00,
2013-04-10 14:20:00,70.6,31.0,29.94,WSW,248,1.0,7.0,23,0.00,CLR,,0.00,WeatherDisplay:10.37,2013-04-10 21:20:00,
2013-04-10 14:30:00,71.1,30.3,29.94,WSW,248,10.0,11.0,22,0.00,CLR,,0.00,WeatherDisplay:10.37,2013-04-10 21:30:00,
2013-04-10 14:40:00,70.9,30.1,29.94,WSW,248,0.0,10.0,22,0.00,CLR,,0.00,WeatherDisplay:10.37,2013-04-10 21:40:00,
2013-04-10 14:50:00,70.9,30.1,29.93,WSW,248,7.0,8.0,22,0.00,CLR,,0.00,WeatherDisplay:10.37,2013-04-10 21:50:00,
2013-04-10 15:00:00,71.1,30.3,29.93,WSW,248,7.0,8.0,22,0.00,CLR,,0.00,WeatherDisplay:10.37,2013-04-10 22:00:00,
2013-04-10 15:05:00,71.1,30.3,29.93,WSW,248,6.0,7.0,22,0.00,CLR,,0.00,WeatherDisplay:10.37,2013-04-10 22:05:00,
2013-04-10 15:10:00,70.9,30.1,29.93,WSW,248,5.0,7.0,22,0.00,CLR,,0.00,WeatherDisplay:10.37,2013-04-10 22:10:00,
2013-04-10 15:20:00,70.9,30.1,29.93,WSW,251,6.0,15.0,22,0.00,CLR,,0.00,WeatherDisplay:10.37,2013-04-10 22:20:00,
2013-04-10 15:30:00,71.1,30.3,29.93,WSW,250,5.0,7.0,22,0.00,CLR,,0.00,WeatherDisplay:10.37,2013-04-10 22:30:00,
2013-04-10 15:35:00,71.2,30.4,29.93,WSW,248,0.0,7.0,22,0.00,CLR,,0.00,WeatherDisplay:10.37,2013-04-10 22:35:00,
2013-04-10 15:40:00,71.2,30.4,29.93,WSW,248,6.0,6.0,22,0.00,CLR,,0.00,WeatherDisplay:10.37,2013-04-10 22:40:00,
2013-04-10 15:50:00,71.2,30.4,29.93,WSW,248,5.0,12.0,22,0.00,CLR,,0.00,WeatherDisplay:10.37,2013-04-10 22:50:00,
2013-04-10 16:00:00,71.0,30.2,29.93,WSW,255,5.0,7.0,22,0.00,CLR,,0.00,WeatherDisplay:10.37,2013-04-10 23:00:00,
2013-04-10 16:05:00,70.6,29.9,29.93,WSW,257,6.0,6.0,22,0.00,CLR,,0.00,WeatherDisplay:10.37,2013-04-10 23:05:00,
2013-04-10 16:10:00,70.3,29.7,29.92,WSW,250,3.0,10.0,22,0.00,CLR,,0.00,WeatherDisplay:10.37,2013-04-10 23:10:00,
2013-04-10 16:20:00,69.8,30.3,29.92,WSW,248,12.0,17.0,23,0.00,CLR,,0.00,WeatherDisplay:10.37,2013-04-10 23:20:00,
2013-04-10 16:30:00,69.2,29.8,29.93,WSW,248,10.0,10.0,23,0.00,CLR,,0.00,WeatherDisplay:10.37,2013-04-10 23:30:00,
2013-04-10 16:40:00,68.5,29.2,29.93,WSW,248,8.0,9.0,23,0.00,CLR,,0.00,WeatherDisplay:10.37,2013-04-10 23:40:00,
2013-04-10 16:50:00,68.0,29.9,29.93,WSW,248,8.0,12.0,24,0.00,CLR,,0.00,WeatherDisplay:10.37,2013-04-10 23:50:00,
2013-04-10 17:00:00,67.3,29.2,29.93,WSW,248,12.0,12.0,24,0.00,CLR,,0.00,WeatherDisplay:10.37,2013-04-11 00:00:00,
2013-04-10 17:05:00,66.7,28.8,29.93,WSW,248,2.0,4.0,24,0.00,CLR,,0.00,WeatherDisplay:10.37,2013-04-11 00:05:00,
2013-04-10 17:10:00,66.4,28.5,29.93,WSW,248,2.0,4.0,24,0.00,CLR,,0.00,WeatherDisplay:10.37,2013-04-11 00:10:00,
2013-04-10 17:20:00,65.1,27.4,29.93,WSW,248,6.0,15.0,24,0.00,CLR,,0.00,WeatherDisplay:10.37,2013-04-11 00:20:00,
2013-04-10 17:30:00,64.1,27.5,29.93,WSW,248,7.0,7.0,25,0.00,CLR,,0.00,WeatherDisplay:10.37,2013-04-11 00:30:00,
2013-04-10 17:40:00,63.1,26.7,29.94,WSW,248,5.0,5.0,25,0.00,CLR,,0.00,WeatherDisplay:10.37,2013-04-11 00:40:00,
2013-04-10 17:50:00,62.2,25.9,29.94,WSW,248,9.0,12.0,25,0.00,CLR,,0.00,WeatherDisplay:10.37,2013-04-11 00:50:00,
2013-04-10 18:00:00,61.2,26.0,29.95,WSW,248,6.0,8.0,26,0.00,CLR,,0.00,WeatherDisplay:10.37,2013-04-11 01:00:00,
2013-04-10 18:05:00,61.0,25.8,29.95,WSW,248,1.0,8.0,26,0.00,CLR,,0.00,WeatherDisplay:10.37,2013-04-11 01:05:00,
2013-04-10 18:10:00,60.6,25.5,29.95,WSW,248,0.0,0.0,26,0.00,CLR,,0.00,WeatherDisplay:10.37,2013-04-11 01:10:00,
2013-04-10 18:20:00,59.5,24.6,29.96,WNW,286,7.0,8.0,26,0.00,CLR,,0.00,WeatherDisplay:10.37,2013-04-11 01:20:00,
2013-04-10 18:25:00,59.1,24.2,29.96,WNW,300,6.0,7.0,26,0.00,CLR,,0.00,WeatherDisplay:10.37,2013-04-11 01:25:00,
2013-04-10 18:30:00,58.8,24.9,29.96,NW,308,0.0,0.0,27,0.00,CLR,,0.00,WeatherDisplay:10.37,2013-04-11 01:30:00,
2013-04-10 18:40:00,58.5,24.6,29.97,NW,324,0.0,10.0,27,0.00,CLR,,0.00,WeatherDisplay:10.37,2013-04-11 01:40:00,
2013-04-10 18:50:00,57.7,23.9,29.97,WNW,291,3.0,6.0,27,0.00,CLR,,0.00,WeatherDisplay:10.37,2013-04-11 01:50:00,
2013-04-10 19:00:00,57.0,23.3,29.97,WNW,293,5.0,7.0,27,0.00,CLR,,0.00,WeatherDisplay:10.37,2013-04-11 02:00:00,
2013-04-10 19:05:00,56.8,23.2,29.97,WNW,297,0.0,7.0,27,0.00,CLR,,0.00,WeatherDisplay:10.37,2013-04-11 02:05:00,
2013-04-10 19:10:00,56.5,23.7,29.98,WNW,294,0.0,0.0,28,0.00,CLR,,0.00,WeatherDisplay:10.37,2013-04-11 02:10:00,
2013-04-10 19:20:00,55.9,23.3,29.99,WNW,303,6.0,6.0,28,0.00,CLR,,0.00,WeatherDisplay:10.37,2013-04-11 02:20:00,
2013-04-10 19:30:00,55.6,23.0,29.99,WNW,287,0.0,7.0,28,0.00,CLR,,0.00,WeatherDisplay:10.37,2013-04-11 02:30:00,
2013-04-10 19:40:00,55.1,22.6,29.99,WNW,292,0.0,0.0,28,0.00,CLR,,0.00,WeatherDisplay:10.37,2013-04-11 02:40:00,
2013-04-10 19:50:00,54.5,22.9,29.99,WNW,284,0.0,0.0,29,0.00,CLR,,0.00,WeatherDisplay:10.37,2013-04-11 02:50:00,
2013-04-10 20:00:00,54.1,23.3,30.00,WNW,294,6.0,8.0,30,0.00,CLR,,0.00,WeatherDisplay:10.37,2013-04-11 03:00:00,
2013-04-10 20:05:00,53.8,23.0,30.00,WNW,297,0.0,5.0,30,0.00,CLR,,0.00,WeatherDisplay:10.37,2013-04-11 03:05:00,
2013-04-10 20:10:00,53.6,22.9,30.00,WNW,295,3.0,5.0,30,0.00,CLR,,0.00,WeatherDisplay:10.37,2013-04-11 03:10:00,
2013-04-10 20:20:00,53.2,22.6,30.00,WNW,292,0.0,0.0,30,0.00,CLR,,0.00,WeatherDisplay:10.37,2013-04-11 03:20:00,
2013-04-10 20:30:00,52.7,22.9,30.01,West,270,0.0,0.0,31,0.00,CLR,,0.00,WeatherDisplay:10.37,2013-04-11 03:30:00,
2013-04-10 20:40:00,52.3,22.6,30.01,West,262,0.0,0.0,31,0.00,CLR,,0.00,WeatherDisplay:10.37,2013-04-11 03:40:00,
2013-04-10 20:50:00,51.8,22.8,30.01,WNW,284,0.0,0.0,32,0.00,CLR,,0.00,WeatherDisplay:10.37,2013-04-11 03:50:00,
2013-04-10 21:00:00,51.5,22.6,30.02,West,272,0.0,0.0,32,0.00,CLR,,0.00,WeatherDisplay:10.37,2013-04-11 04:00:00,
2013-04-10 21:05:00,51.4,22.5,30.02,WNW,290,0.0,0.0,32,0.00,CLR,,0.00,WeatherDisplay:10.37,2013-04-11 04:05:00,
2013-04-10 21:10:00,51.2,22.3,30.02,WNW,295,5.0,5.0,32,0.00,CLR,,0.00,WeatherDisplay:10.37,2013-04-11 04:10:00,
2013-04-10 21:20:00,50.9,22.1,30.02,West,272,0.0,0.0,32,0.00,CLR,,0.00,WeatherDisplay:10.37,2013-04-11 04:20:00,
2013-04-10 21:30:00,50.7,22.6,30.02,West,273,0.0,0.0,33,0.00,CLR,,0.00,WeatherDisplay:10.37,2013-04-11 04:30:00,
2013-04-10 21:40:00,50.4,22.3,30.03,West,265,0.0,0.0,33,0.00,CLR,,0.00,WeatherDisplay:10.37,2013-04-11 04:40:00,
2013-04-10 21:50:00,50.2,22.1,30.03,West,273,1.0,5.0,33,0.00,CLR,,0.00,WeatherDisplay:10.37,2013-04-11 04:50:00,
2013-04-10 22:00:00,49.8,22.5,30.03,WNW,292,0.0,0.0,34,0.00,CLR,,0.00,WeatherDisplay:10.37,2013-04-11 05:00:00,
2013-04-10 22:05:00,49.8,22.5,30.03,WNW,292,0.0,0.0,34,0.00,CLR,,0.00,WeatherDisplay:10.37,2013-04-11 05:05:00,
2013-04-10 22:10:00,49.8,22.5,30.03,WNW,291,0.0,3.0,34,0.00,CLR,,0.00,WeatherDisplay:10.37,2013-04-11 05:10:00,
2013-04-10 22:20:00,49.6,23.1,30.03,WSW,247,0.0,0.0,35,0.00,CLR,,0.00,WeatherDisplay:10.37,2013-04-11 05:20:00,
2013-04-10 22:30:00,49.3,23.4,30.02,WNW,287,0.0,0.0,36,0.00,CLR,,0.00,WeatherDisplay:10.37,2013-04-11 05:30:00,
2013-04-10 22:40:00,49.1,23.9,30.02,West,268,0.0,0.0,37,0.00,CLR,,0.00,WeatherDisplay:10.37,2013-04-11 05:40:00,
2013-04-10 22:45:00,48.9,23.8,30.02,WSW,244,3.0,4.0,37,0.00,CLR,,0.00,WeatherDisplay:10.37,2013-04-11 05:45:00,
2013-04-10 22:50:00,48.9,23.8,30.02,SW,228,0.0,0.0,37,0.00,CLR,,0.00,WeatherDisplay:10.37,2013-04-11 05:50:00,
2013-04-10 22:55:00,48.7,24.2,30.02,WSW,237,0.0,0.0,38,0.00,CLR,,0.00,WeatherDisplay:10.37,2013-04-11 05:55:00,
2013-04-10 23:05:00,48.6,24.1,30.02,WSW,248,0.0,0.0,38,0.00,CLR,,0.00,WeatherDisplay:10.37,2013-04-11 06:05:00,
2013-04-10 23:10:00,48.4,23.9,30.02,WSW,248,0.0,0.0,38,0.00,CLR,,0.00,WeatherDisplay:10.37,2013-04-11 06:10:00,
2013-04-10 23:20:00,48.0,24.2,30.02,WSW,248,0.0,0.0,39,0.00,CLR,,0.00,WeatherDisplay:10.37,2013-04-11 06:20:00,
2013-04-10 23:30:00,47.7,23.9,30.03,WSW,248,0.0,0.0,39,0.00,CLR,,0.00,WeatherDisplay:10.37,2013-04-11 06:30:00,
2013-04-10 23:40:00,46.9,23.8,30.02,WSW,248,0.0,0.0,40,0.00,CLR,,0.00,WeatherDisplay:10.37,2013-04-11 06:40:00,
2013-04-10 23:50:00,46.4,23.3,30.03,WSW,248,0.0,0.0,40,0.00,CLR,,0.00,WeatherDisplay:10.37,2013-04-11 06:50:00,